createdAt,value
2023-12-09T00:01:19.932Z,28.37
2023-12-09T00:03:47.731Z,28.60
2023-12-09T00:06:16.098Z,25.23
2023-12-09T00:08:43.887Z,23.53
2023-12-09T00:11:11.667Z,26.37
2023-12-09T00:13:39.524Z,26.43
2023-12-09T00:16:07.709Z,26.70
2023-12-09T00:18:35.656Z,28.83
2023-12-09T00:21:04.038Z,26.60
2023-12-09T00:23:31.907Z,26.73
2023-12-09T00:25:59.786Z,26.77
2023-12-09T00:28:27.614Z,29.23
2023-12-09T00:30:55.924Z,27.63
2023-12-09T00:33:24.051Z,27.97
2023-12-09T00:35:52.020Z,26.97
2023-12-09T00:38:19.878Z,27.33
2023-12-09T00:40:47.712Z,25.87
2023-12-09T00:43:15.607Z,26.83
2023-12-09T00:45:43.554Z,27.10
2023-12-09T00:48:11.629Z,28.13
2023-12-09T00:50:39.597Z,28.87
2023-12-09T00:53:07.429Z,24.77
2023-12-09T00:55:35.294Z,25.73
2023-12-09T00:58:03.118Z,28.50
2023-12-09T01:00:31.075Z,29.27
2023-12-09T01:02:59.022Z,25.87
2023-12-09T01:05:26.922Z,27.23
2023-12-09T01:07:54.718Z,28.43
2023-12-09T01:10:22.377Z,26.77
2023-12-09T01:12:50.350Z,32.03
2023-12-09T01:15:18.331Z,27.20
2023-12-09T01:17:46.403Z,26.90
2023-12-09T01:20:15.560Z,27.73
2023-12-09T01:22:43.431Z,26.17
2023-12-09T01:25:11.439Z,29.13
2023-12-09T01:27:39.283Z,27.83
2023-12-09T01:30:08.051Z,27.10
2023-12-09T01:32:35.910Z,29.50
2023-12-09T01:35:05.014Z,24.63
2023-12-09T01:37:32.752Z,29.50
2023-12-09T01:40:00.568Z,31.13
2023-12-09T01:42:28.612Z,27.00
2023-12-09T01:44:56.708Z,27.30
2023-12-09T01:47:24.978Z,25.03
2023-12-09T01:49:55.312Z,27.57
2023-12-09T01:52:23.256Z,29.17
2023-12-09T01:54:51.322Z,25.43
2023-12-09T01:57:19.665Z,27.53
2023-12-09T01:59:47.583Z,26.97
2023-12-09T02:02:15.521Z,28.97
2023-12-09T02:04:43.503Z,28.87
2023-12-09T02:07:11.350Z,28.57
2023-12-09T02:09:43.079Z,31.00
2023-12-09T02:12:46.988Z,28.10
2023-12-09T02:15:30.626Z,27.57
2023-12-09T02:18:05.557Z,29.33
2023-12-09T02:20:34.438Z,27.00
2023-12-09T02:23:09.835Z,28.37
2023-12-09T02:25:39.191Z,27.73
2023-12-09T02:28:30.968Z,31.13
2023-12-09T02:31:28.749Z,29.38
2023-12-09T02:33:58.660Z,26.63
2023-12-09T02:36:28.701Z,29.20
2023-12-09T02:38:57.746Z,27.10
2023-12-09T02:41:28.305Z,28.57
2023-12-09T02:43:57.238Z,30.13
2023-12-09T02:46:25.442Z,30.87
2023-12-09T02:48:53.783Z,27.30
2023-12-09T02:51:21.610Z,26.30
2023-12-09T02:53:49.429Z,26.73
2023-12-09T02:56:17.199Z,26.63
2023-12-09T02:58:45.065Z,28.13
2023-12-09T03:01:12.896Z,27.53
2023-12-09T03:03:40.749Z,28.77
2023-12-09T03:06:08.578Z,29.87
2023-12-09T03:08:42.177Z,28.13
2023-12-09T03:11:09.951Z,33.43
2023-12-09T03:13:37.778Z,28.90
2023-12-09T03:16:06.043Z,28.47
2023-12-09T03:18:34.075Z,27.63
2023-12-09T03:21:01.996Z,27.43
2023-12-09T03:23:29.818Z,29.23
2023-12-09T03:25:57.637Z,26.10
2023-12-09T03:28:25.534Z,26.23
2023-12-09T03:30:53.370Z,29.67
2023-12-09T03:33:24.408Z,27.63
2023-12-09T03:35:52.373Z,23.93
2023-12-09T03:38:20.230Z,30.20
2023-12-09T03:40:47.996Z,30.53
2023-12-09T03:43:15.812Z,29.47
2023-12-09T03:45:45.894Z,31.80
2023-12-09T03:48:14.014Z,28.77
2023-12-09T03:50:41.957Z,29.70
2023-12-09T03:53:09.795Z,27.53
2023-12-09T03:55:37.712Z,28.77
2023-12-09T03:58:07.499Z,29.43
2023-12-09T04:00:35.996Z,29.40
2023-12-09T04:03:05.895Z,29.40
2023-12-09T04:05:35.839Z,29.03
2023-12-09T04:08:06.172Z,30.13
2023-12-09T04:10:33.929Z,29.47
2023-12-09T04:13:01.740Z,30.83
2023-12-09T04:15:29.729Z,30.93
2023-12-09T04:17:57.689Z,29.40
2023-12-09T04:20:25.787Z,31.90
2023-12-09T04:22:53.750Z,30.80
2023-12-09T04:25:22.706Z,34.13
2023-12-09T04:27:50.569Z,30.43
2023-12-09T04:30:18.860Z,33.37
2023-12-09T04:32:46.739Z,31.37
2023-12-09T04:35:15.211Z,31.40
2023-12-09T04:37:45.317Z,29.73
2023-12-09T04:40:15.173Z,30.97
2023-12-09T04:42:44.353Z,31.05
2023-12-09T04:45:12.239Z,34.07
2023-12-09T04:47:40.432Z,31.47
2023-12-09T04:50:12.375Z,29.53
2023-12-09T04:52:40.411Z,34.35
2023-12-09T04:55:09.494Z,31.07
2023-12-09T04:57:37.563Z,31.33
2023-12-09T05:00:06.841Z,26.60
2023-12-09T05:02:34.841Z,30.53
2023-12-09T05:05:02.930Z,35.03
2023-12-09T05:07:30.753Z,29.90
2023-12-09T05:09:58.373Z,30.57
2023-12-09T05:12:28.091Z,33.13
2023-12-09T05:14:56.189Z,29.20
2023-12-09T05:17:24.092Z,29.33
2023-12-09T05:19:51.880Z,32.67
2023-12-09T05:22:19.792Z,28.97
2023-12-09T05:24:47.535Z,31.00
2023-12-09T05:27:15.352Z,34.87
2023-12-09T05:29:44.686Z,32.47
2023-12-09T05:32:12.694Z,33.60
2023-12-09T05:34:40.594Z,32.43
2023-12-09T05:37:08.219Z,27.87
2023-12-09T05:39:36.832Z,28.23
2023-12-09T05:42:05.975Z,32.17
2023-12-09T05:44:33.959Z,27.93
2023-12-09T05:47:01.769Z,33.83
2023-12-09T05:49:29.616Z,31.43
2023-12-09T05:51:57.864Z,33.83
2023-12-09T05:54:25.558Z,34.17
2023-12-09T05:56:53.450Z,32.57
2023-12-09T05:59:21.281Z,34.67
2023-12-09T06:01:49.060Z,29.37
2023-12-09T06:04:16.983Z,30.87
2023-12-09T06:06:44.786Z,31.53
2023-12-09T06:09:12.722Z,29.63
2023-12-09T06:11:40.556Z,32.00
2023-12-09T06:14:08.418Z,29.73
2023-12-09T06:16:36.249Z,31.07
2023-12-09T06:19:04.328Z,30.93
2023-12-09T06:21:32.230Z,31.23
2023-12-09T06:24:00.057Z,31.80
2023-12-09T06:26:28.086Z,31.17
2023-12-09T06:28:55.985Z,31.33
2023-12-09T06:31:23.772Z,31.37
2023-12-09T06:33:51.729Z,28.90
2023-12-09T06:36:19.692Z,33.57
2023-12-09T06:38:47.702Z,29.10
2023-12-09T06:41:15.332Z,30.17
2023-12-09T06:43:43.084Z,30.47
2023-12-09T06:46:10.943Z,31.33
2023-12-09T06:48:41.671Z,33.17
2023-12-09T06:51:17.173Z,31.37
2023-12-09T06:53:48.285Z,34.03
2023-12-09T06:56:22.111Z,32.83
2023-12-09T06:58:50.895Z,33.00
2023-12-09T07:01:26.172Z,32.33
2023-12-09T07:03:54.189Z,29.17
2023-12-09T07:06:27.113Z,31.90
2023-12-09T07:08:55.501Z,31.93
2023-12-09T07:11:23.793Z,31.57
2023-12-09T07:13:51.830Z,35.63
2023-12-09T07:16:19.781Z,30.30
2023-12-09T07:18:48.821Z,30.27
2023-12-09T07:21:17.629Z,30.33
2023-12-09T07:23:45.517Z,30.67
2023-12-09T07:26:13.566Z,35.00
2023-12-09T07:28:41.430Z,27.67
2023-12-09T07:31:09.494Z,30.30
2023-12-09T07:33:37.436Z,29.13
2023-12-09T07:36:05.864Z,30.43
2023-12-09T07:38:33.663Z,31.80
2023-12-09T07:41:02.653Z,32.77
2023-12-09T07:43:32.882Z,34.17
2023-12-09T07:46:00.696Z,31.70
2023-12-09T07:48:28.814Z,33.23
2023-12-09T07:50:56.877Z,30.63
2023-12-09T07:53:24.682Z,32.47
2023-12-09T07:55:52.529Z,30.60
2023-12-09T07:58:20.310Z,31.90
2023-12-09T08:00:48.829Z,33.30
2023-12-09T08:03:16.894Z,32.47
2023-12-09T08:05:47.764Z,34.17
2023-12-09T08:08:15.591Z,32.17
2023-12-09T08:10:43.557Z,29.23
2023-12-09T08:13:12.983Z,32.00
2023-12-09T08:15:42.041Z,30.30
2023-12-09T08:18:12.344Z,33.77
2023-12-09T08:20:41.509Z,32.00
2023-12-09T08:23:09.379Z,32.50
2023-12-09T08:25:37.214Z,29.67
2023-12-09T08:28:07.103Z,34.50
2023-12-09T08:30:35.023Z,32.97
2023-12-09T08:33:03.131Z,30.00
2023-12-09T08:35:31.932Z,29.03
2023-12-09T08:37:59.788Z,28.97
2023-12-09T08:40:32.005Z,32.70
2023-12-09T08:42:59.848Z,28.90
2023-12-09T08:45:27.556Z,27.87
2023-12-09T08:47:55.490Z,31.37
2023-12-09T08:50:25.521Z,29.83
2023-12-09T08:52:54.301Z,26.70
2023-12-09T08:55:22.969Z,29.10
2023-12-09T08:57:53.196Z,30.90
2023-12-09T09:00:23.514Z,27.33
2023-12-09T09:02:51.708Z,28.63
2023-12-09T09:05:19.476Z,28.73
2023-12-09T09:07:47.372Z,29.37
2023-12-09T09:10:15.834Z,29.10
2023-12-09T09:12:45.469Z,28.07
2023-12-09T09:15:14.095Z,29.40
2023-12-09T09:17:42.189Z,29.70
2023-12-09T09:20:11.860Z,26.23
2023-12-09T09:22:45.393Z,30.73
2023-12-09T09:25:16.768Z,27.80
2023-12-09T09:27:45.025Z,26.87
2023-12-09T09:30:14.590Z,29.40
2023-12-09T09:32:45.835Z,29.73
2023-12-09T09:35:13.759Z,29.37
2023-12-09T09:37:41.599Z,28.73
2023-12-09T09:40:12.719Z,27.67
2023-12-09T09:42:49.993Z,33.38
2023-12-09T09:45:32.848Z,29.63
2023-12-09T09:48:06.774Z,28.60
2023-12-09T09:50:45.614Z,32.37
2023-12-09T09:53:20.142Z,29.30
2023-12-09T09:55:48.409Z,29.20
2023-12-09T09:58:17.712Z,28.47
2023-12-09T10:00:50.644Z,28.65
2023-12-09T10:03:18.554Z,27.80
2023-12-09T10:05:46.848Z,28.50
2023-12-09T10:08:14.639Z,28.73
2023-12-09T10:10:43.448Z,29.25
2023-12-09T10:13:11.452Z,28.00
2023-12-09T10:15:39.388Z,28.60
2023-12-09T10:18:07.768Z,26.92
2023-12-09T10:20:36.599Z,28.25
2023-12-09T10:23:04.668Z,27.38
2023-12-09T10:25:32.473Z,26.70
2023-12-09T10:28:00.394Z,27.33
2023-12-09T10:30:28.842Z,31.52
2023-12-09T10:32:57.482Z,30.13
2023-12-09T10:35:25.333Z,30.20
2023-12-09T10:37:52.974Z,31.00
2023-12-09T10:40:23.674Z,34.77
2023-12-09T10:45:20.655Z,27.50
2023-12-09T10:47:48.424Z,28.87
2023-12-09T10:50:16.508Z,30.30
2023-12-09T10:52:44.370Z,29.98
2023-12-09T10:55:12.180Z,30.90
2023-12-09T10:57:41.062Z,27.33
2023-12-09T11:00:37.657Z,29.63
2023-12-09T11:03:08.304Z,30.37
2023-12-09T11:05:49.302Z,29.58
2023-12-09T11:08:17.452Z,32.67
2023-12-09T11:10:46.111Z,30.48
2023-12-09T11:13:13.979Z,30.77
2023-12-09T11:15:41.989Z,33.60
2023-12-09T11:18:11.346Z,34.33
2023-12-09T11:20:41.190Z,31.10
2023-12-09T11:23:11.603Z,32.45
2023-12-09T11:25:41.758Z,26.73
2023-12-09T11:28:13.233Z,32.05
2023-12-09T11:30:43.874Z,30.35
2023-12-09T11:33:12.438Z,30.38
2023-12-09T11:35:41.591Z,30.30
2023-12-09T11:38:10.735Z,32.63
2023-12-09T11:40:38.527Z,29.17
2023-12-09T11:43:08.190Z,31.27
2023-12-09T11:45:38.022Z,27.95
2023-12-09T11:48:06.957Z,33.65
2023-12-09T11:50:35.205Z,28.27
2023-12-09T11:53:03.053Z,28.38
2023-12-09T11:55:30.822Z,30.10
2023-12-09T11:57:58.672Z,29.88
2023-12-09T12:00:27.276Z,32.63
2023-12-09T12:02:55.233Z,26.60
2023-12-09T12:05:23.101Z,29.52
2023-12-09T12:07:51.055Z,23.90
2023-12-09T12:10:18.858Z,29.92
2023-12-09T12:12:46.777Z,26.70
2023-12-09T12:15:14.823Z,25.02
2023-12-09T12:17:43.009Z,26.92
2023-12-09T12:20:13.750Z,26.50
2023-12-09T12:22:42.348Z,26.25
2023-12-09T12:25:11.104Z,30.15
2023-12-09T12:27:45.744Z,26.33
2023-12-09T12:30:16.904Z,26.77
2023-12-09T12:32:55.239Z,25.48
2023-12-09T12:35:27.571Z,24.65
2023-12-09T12:37:57.939Z,27.50
2023-12-09T12:40:25.874Z,26.65
2023-12-09T12:42:55.153Z,22.13
2023-12-09T12:45:27.821Z,23.75
2023-12-09T12:47:56.373Z,26.43
2023-12-09T12:50:24.217Z,21.70
2023-12-09T12:52:52.197Z,23.23
2023-12-09T12:55:19.888Z,27.33
2023-12-09T12:57:48.131Z,21.60
2023-12-09T13:00:21.266Z,24.10
2023-12-09T13:05:16.885Z,22.73
2023-12-09T13:07:49.132Z,23.98
2023-12-09T13:10:17.131Z,21.20
2023-12-09T13:12:45.258Z,22.05
2023-12-09T13:15:13.455Z,22.95
2023-12-09T13:17:41.526Z,22.88
2023-12-09T13:20:11.304Z,21.20
2023-12-09T13:22:39.274Z,20.75
2023-12-09T13:25:08.478Z,22.17
2023-12-09T13:27:37.554Z,22.02
2023-12-09T13:30:07.868Z,18.95
2023-12-09T13:32:37.433Z,20.70
2023-12-09T13:35:06.904Z,19.23
2023-12-09T13:37:34.847Z,23.83
2023-12-09T13:40:03.862Z,17.50
2023-12-09T13:42:32.051Z,20.67
2023-12-09T13:45:00.172Z,15.35
2023-12-09T13:47:27.882Z,14.73
2023-12-09T13:49:55.681Z,15.52
2023-12-09T13:52:29.664Z,16.80
2023-12-09T13:54:58.387Z,13.90
2023-12-09T13:57:26.240Z,12.75
2023-12-09T13:59:53.883Z,12.02
2023-12-09T14:02:21.799Z,11.93
2023-12-09T14:04:49.992Z,11.82
2023-12-09T14:07:18.001Z,11.05
2023-12-09T14:09:46.013Z,12.05
2023-12-09T14:12:13.825Z,11.27
2023-12-09T14:14:41.631Z,11.50
2023-12-09T14:17:11.223Z,11.97
2023-12-09T14:19:39.557Z,11.90
2023-12-09T14:22:07.572Z,10.60
2023-12-09T14:24:36.963Z,11.77
2023-12-09T14:27:05.213Z,13.53
2023-12-09T14:29:33.163Z,12.43
2023-12-09T14:32:03.006Z,15.33
2023-12-09T14:34:31.946Z,16.73
2023-12-09T14:37:00.185Z,18.63
2023-12-09T14:39:28.345Z,19.90
2023-12-09T14:41:56.295Z,22.67
2023-12-09T14:44:24.137Z,20.50
2023-12-09T14:46:52.792Z,21.93
2023-12-09T14:49:20.990Z,23.47
2023-12-09T14:51:48.992Z,24.13
2023-12-09T14:54:18.375Z,23.97
2023-12-09T14:56:47.658Z,24.50
2023-12-09T14:59:17.361Z,23.00
2023-12-09T15:01:45.301Z,26.10
2023-12-09T15:04:14.844Z,27.77
2023-12-09T15:06:42.763Z,28.40
2023-12-09T15:09:11.316Z,29.20
2023-12-09T15:11:39.260Z,27.73
2023-12-09T15:14:07.043Z,28.30
2023-12-09T15:16:35.320Z,31.13
2023-12-09T15:19:04.109Z,28.63
2023-12-09T15:21:32.241Z,26.03
2023-12-09T15:24:00.307Z,28.20
2023-12-09T15:26:28.446Z,29.20
2023-12-09T15:28:56.287Z,29.10
2023-12-09T15:31:24.407Z,26.90
2023-12-09T15:33:52.604Z,28.33
2023-12-09T15:36:21.005Z,28.93
2023-12-09T15:38:48.914Z,30.50
2023-12-09T15:41:16.711Z,32.07
2023-12-09T15:43:44.539Z,29.67
2023-12-09T15:46:12.396Z,29.97
2023-12-09T15:48:41.293Z,31.30
2023-12-09T15:51:09.359Z,28.13
2023-12-09T15:53:40.095Z,30.47
2023-12-09T15:56:08.545Z,28.80
2023-12-09T15:58:36.699Z,26.30
2023-12-09T16:01:04.804Z,29.47
2023-12-09T16:03:32.762Z,26.50
2023-12-09T16:06:00.872Z,31.57
2023-12-09T16:08:28.543Z,28.00
2023-12-09T16:10:56.334Z,24.73
2023-12-09T16:13:24.957Z,26.67
2023-12-09T16:15:53.256Z,23.47
2023-12-09T16:18:21.294Z,22.53
2023-12-09T16:20:50.265Z,22.40
2023-12-09T16:23:18.343Z,21.17
2023-12-09T16:26:12.185Z,20.47
2023-12-09T16:28:40.127Z,19.73
2023-12-09T16:31:14.387Z,19.93
2023-12-09T16:33:42.720Z,19.93
2023-12-09T16:36:11.108Z,19.63
2023-12-09T16:38:38.959Z,18.63
2023-12-09T16:41:07.450Z,19.77
2023-12-09T16:43:35.175Z,18.70
2023-12-09T16:46:03.000Z,16.83
2023-12-09T16:48:31.321Z,18.93
2023-12-09T16:50:59.355Z,19.37
2023-12-09T16:53:27.126Z,22.17
2023-12-09T16:55:55.560Z,18.77
2023-12-09T16:58:23.452Z,16.63
2023-12-09T17:00:51.455Z,17.00
2023-12-09T17:03:21.522Z,16.87
2023-12-09T17:05:50.784Z,20.33
2023-12-09T17:08:18.589Z,15.33
2023-12-09T17:10:46.360Z,20.77
2023-12-09T17:13:14.198Z,17.63
2023-12-09T17:15:42.095Z,15.57
2023-12-09T17:18:10.478Z,15.80
2023-12-09T17:20:38.404Z,14.90
2023-12-09T17:23:06.172Z,13.70
2023-12-09T17:25:34.003Z,13.90
2023-12-09T17:28:01.837Z,14.03
2023-12-09T17:30:29.841Z,14.43
2023-12-09T17:32:57.736Z,12.20
2023-12-09T17:35:30.037Z,14.70
2023-12-09T17:37:57.904Z,12.87
2023-12-09T17:40:25.632Z,14.93
2023-12-09T17:42:53.474Z,13.27
2023-12-09T17:45:21.282Z,14.10
2023-12-09T17:47:49.192Z,13.83
2023-12-09T17:50:17.422Z,13.70
2023-12-09T17:52:45.341Z,12.60
2023-12-09T17:55:14.183Z,12.90
2023-12-09T17:57:42.107Z,15.37
2023-12-09T18:00:11.572Z,14.43
2023-12-09T18:02:40.796Z,13.60
2023-12-09T18:05:09.913Z,12.70
2023-12-09T18:07:38.347Z,13.53
2023-12-09T18:10:07.087Z,14.30
2023-12-09T18:12:34.966Z,13.80
2023-12-09T18:15:02.893Z,13.20
2023-12-09T18:17:30.822Z,16.50
2023-12-09T18:19:58.627Z,13.00
2023-12-09T18:22:26.777Z,14.87
2023-12-09T18:24:54.857Z,12.73
2023-12-09T18:27:23.080Z,12.50
2023-12-09T18:29:51.085Z,14.50
2023-12-09T18:32:18.915Z,13.00
2023-12-09T18:34:46.760Z,15.03
2023-12-09T18:37:14.864Z,13.57
2023-12-09T18:39:42.802Z,13.47
2023-12-09T18:42:10.912Z,13.93
2023-12-09T18:44:38.563Z,13.37
2023-12-09T18:47:06.717Z,14.90
2023-12-09T18:49:34.511Z,13.13
2023-12-09T18:52:02.302Z,11.90
2023-12-09T18:54:30.188Z,13.40
2023-12-09T18:56:58.274Z,12.73
2023-12-09T18:59:26.439Z,11.87
2023-12-09T19:02:04.403Z,11.70
2023-12-09T19:04:39.048Z,12.63
2023-12-09T19:07:08.583Z,12.27
2023-12-09T19:09:36.436Z,12.07
2023-12-09T19:12:05.156Z,11.27
2023-12-09T19:14:33.034Z,12.17
2023-12-09T19:17:01.455Z,12.23
2023-12-09T19:19:29.618Z,11.70
2023-12-09T19:21:57.662Z,11.63
2023-12-09T19:24:25.451Z,13.03
2023-12-09T19:27:18.538Z,11.60
2023-12-09T19:29:46.808Z,10.47
2023-12-09T19:32:15.900Z,16.13
2023-12-09T19:34:43.811Z,14.00
2023-12-09T19:37:11.623Z,11.80
2023-12-09T19:39:39.536Z,11.57
2023-12-09T19:42:07.400Z,11.53
2023-12-09T19:44:35.244Z,11.87
2023-12-09T19:47:03.070Z,13.50
2023-12-09T19:49:33.955Z,14.57
2023-12-09T19:52:01.832Z,11.37
2023-12-09T19:54:30.743Z,14.00
2023-12-09T19:56:58.653Z,14.97
2023-12-09T19:59:26.447Z,13.37
2023-12-09T20:01:54.269Z,14.97
2023-12-09T20:04:22.298Z,15.60
2023-12-09T20:06:50.938Z,15.10
2023-12-09T20:09:18.699Z,15.37
2023-12-09T20:11:46.472Z,15.97
2023-12-09T20:14:14.276Z,13.80
2023-12-09T20:16:42.090Z,14.10
2023-12-09T20:19:10.080Z,15.23
2023-12-09T20:21:38.203Z,16.50
2023-12-09T20:24:06.459Z,14.37
2023-12-09T20:26:36.451Z,14.77
2023-12-09T20:29:05.688Z,14.37
2023-12-09T20:31:33.577Z,14.80
2023-12-09T20:34:01.555Z,15.43
2023-12-09T20:36:29.600Z,13.40
2023-12-09T20:38:57.458Z,11.90
2023-12-09T20:41:25.243Z,13.73
2023-12-09T20:43:53.313Z,14.20
2023-12-09T20:46:22.257Z,16.17
2023-12-09T20:48:50.151Z,15.03
2023-12-09T20:51:19.832Z,13.43
2023-12-09T20:53:47.710Z,13.87
2023-12-09T20:56:22.061Z,14.03
2023-12-09T20:58:49.937Z,16.17
2023-12-09T21:01:18.078Z,12.67
2023-12-09T21:03:49.079Z,13.50
2023-12-09T21:06:42.616Z,13.37
2023-12-09T21:09:10.998Z,13.83
2023-12-09T21:11:39.295Z,14.43
2023-12-09T21:14:07.898Z,14.93
2023-12-09T21:16:36.257Z,13.70
2023-12-09T21:19:04.354Z,13.17
2023-12-09T21:21:32.697Z,14.43
2023-12-09T21:24:00.515Z,14.40
2023-12-09T21:26:28.266Z,15.33
2023-12-09T21:28:56.284Z,13.97
2023-12-09T21:31:24.149Z,14.63
2023-12-09T21:33:53.273Z,13.30
2023-12-09T21:36:21.190Z,14.17
2023-12-09T21:38:49.027Z,15.53
2023-12-09T21:41:20.652Z,15.57
2023-12-09T21:43:50.119Z,14.45
2023-12-09T21:46:22.656Z,14.80
2023-12-09T21:48:52.682Z,13.27
2023-12-09T21:51:21.890Z,12.37
2023-12-09T21:53:49.827Z,13.37
2023-12-09T21:56:25.110Z,12.57
2023-12-09T21:58:53.620Z,14.33
2023-12-09T22:01:22.239Z,12.17
2023-12-09T22:03:50.655Z,13.13
2023-12-09T22:06:20.654Z,12.73
2023-12-09T22:08:48.748Z,13.60
2023-12-09T22:11:18.249Z,12.87
2023-12-09T22:13:46.198Z,12.57
2023-12-09T22:16:19.404Z,12.43
2023-12-09T22:18:48.384Z,12.20
2023-12-09T22:21:16.544Z,13.33
2023-12-09T22:23:44.331Z,11.53
2023-12-09T22:26:12.120Z,10.67
2023-12-09T22:28:41.657Z,9.83
2023-12-09T22:31:09.737Z,10.83
2023-12-09T22:33:38.328Z,10.97
2023-12-09T22:36:07.540Z,12.73
2023-12-09T22:38:35.262Z,11.33
2023-12-09T22:41:03.108Z,10.80
2023-12-09T22:43:31.214Z,11.27
2023-12-09T22:45:58.778Z,11.60
2023-12-09T22:48:26.824Z,10.67
2023-12-09T22:50:55.005Z,11.10
2023-12-09T22:53:22.833Z,8.97
2023-12-09T22:55:50.539Z,12.43
2023-12-09T23:01:09.754Z,12.37
2023-12-09T23:03:37.480Z,12.50
2023-12-09T23:06:05.503Z,11.67
2023-12-09T23:08:33.833Z,11.03
2023-12-09T23:11:02.492Z,12.57
2023-12-09T23:13:30.387Z,12.17
2023-12-09T23:15:58.812Z,13.37
2023-12-09T23:18:26.915Z,13.03
2023-12-09T23:20:54.745Z,14.37
2023-12-09T23:23:23.731Z,15.03
2023-12-09T23:25:54.437Z,12.60
2023-12-09T23:28:23.552Z,13.70
2023-12-09T23:30:51.488Z,11.83
2023-12-09T23:33:20.257Z,13.60
2023-12-09T23:35:48.681Z,12.73
2023-12-09T23:38:16.836Z,10.70
2023-12-09T23:40:46.954Z,13.57
2023-12-09T23:43:18.080Z,13.87
2023-12-09T23:45:46.033Z,13.53
2023-12-09T23:48:18.430Z,13.77
2023-12-09T23:50:48.983Z,11.10
2023-12-09T23:53:18.983Z,12.20
2023-12-09T23:55:48.793Z,12.40
2023-12-09T23:58:16.724Z,11.73
